createdAt,value
2019-05-15T00:02:24.372Z,3.00
2019-05-15T00:04:51.212Z,3.12
2019-05-15T00:07:18.374Z,3.00
2019-05-15T00:09:46.124Z,3.20
2019-05-15T00:12:12.917Z,3.33
2019-05-15T00:14:39.757Z,3.27
2019-05-15T00:17:08.235Z,3.08
2019-05-15T00:19:35.577Z,3.10
2019-05-15T00:22:02.372Z,2.98
2019-05-15T00:24:29.208Z,3.33
2019-05-15T00:26:55.997Z,3.65
2019-05-15T00:29:22.834Z,3.35
2019-05-15T00:31:49.618Z,3.60
2019-05-15T00:34:18.285Z,3.70
2019-05-15T00:36:45.130Z,4.20
2019-05-15T00:39:11.965Z,3.70
2019-05-15T00:41:50.442Z,3.85
2019-05-15T00:44:09.253Z,3.70
2019-05-15T00:46:38.283Z,3.55
2019-05-15T00:49:04.601Z,3.77
2019-05-15T00:51:31.433Z,3.40
2019-05-15T00:53:58.941Z,3.47
2019-05-15T00:56:28.298Z,3.70
2019-05-15T00:58:54.541Z,3.70
2019-05-15T01:01:21.378Z,3.90
2019-05-15T01:03:49.454Z,4.10
2019-05-15T01:06:18.875Z,3.77
2019-05-15T01:08:45.009Z,4.00
2019-05-15T01:11:11.793Z,3.58
2019-05-15T01:13:39.009Z,3.75
2019-05-15T01:16:05.924Z,3.87
2019-05-15T01:18:32.850Z,4.20
2019-05-15T01:20:59.685Z,4.12
2019-05-15T01:23:28.257Z,4.00
2019-05-15T01:25:55.121Z,4.50
2019-05-15T01:28:21.949Z,4.40
2019-05-15T01:30:48.857Z,4.40
2019-05-15T01:33:15.732Z,4.20
2019-05-15T01:35:42.518Z,4.03
2019-05-15T01:38:09.359Z,4.17
2019-05-15T01:40:38.242Z,4.70
2019-05-15T01:43:04.768Z,4.17
2019-05-15T01:45:31.885Z,4.17
2019-05-15T01:48:00.450Z,4.10
2019-05-15T01:50:29.245Z,4.27
2019-05-15T01:52:55.861Z,4.15
2019-05-15T01:55:22.700Z,4.30
2019-05-15T01:57:49.480Z,4.20
2019-05-15T02:00:18.854Z,4.10
2019-05-15T02:02:48.027Z,4.23
2019-05-15T02:05:16.232Z,4.00
2019-05-15T02:07:43.069Z,3.65
2019-05-15T02:10:10.158Z,3.90
2019-05-15T02:12:38.715Z,4.30
2019-05-15T02:15:08.524Z,4.00
2019-05-15T02:17:35.328Z,4.10
2019-05-15T02:20:03.213Z,4.08
2019-05-15T02:22:30.053Z,4.30
2019-05-15T02:24:59.147Z,4.05
2019-05-15T02:27:25.885Z,4.15
2019-05-15T02:29:52.724Z,3.90
2019-05-15T02:32:19.650Z,4.05
2019-05-15T02:34:49.759Z,4.10
2019-05-15T02:37:15.281Z,4.00
2019-05-15T02:39:42.126Z,4.87
2019-05-15T02:42:09.905Z,3.90
2019-05-15T02:44:39.662Z,4.50
2019-05-15T02:47:05.552Z,4.00
2019-05-15T02:49:32.384Z,4.00
2019-05-15T02:52:00.185Z,4.03
2019-05-15T02:54:29.931Z,3.70
2019-05-15T02:56:58.837Z,3.60
2019-05-15T02:59:24.535Z,3.90
2019-05-15T03:01:51.325Z,4.37
2019-05-15T03:04:19.913Z,4.00
2019-05-15T03:06:49.509Z,4.10
2019-05-15T03:09:18.503Z,4.10
2019-05-15T03:11:44.527Z,3.90
2019-05-15T03:14:11.308Z,3.58
2019-05-15T03:16:39.418Z,4.00
2019-05-15T03:19:09.707Z,3.72
2019-05-15T03:21:35.157Z,3.80
2019-05-15T03:24:02.002Z,3.72
2019-05-15T03:26:29.901Z,3.70
2019-05-15T03:28:59.043Z,4.00
2019-05-15T03:31:47.895Z,3.60
2019-05-15T03:33:55.085Z,3.95
2019-05-15T03:36:23.774Z,4.00
2019-05-15T03:38:50.838Z,3.60
2019-05-15T03:41:19.532Z,3.62
2019-05-15T03:43:49.351Z,3.52
2019-05-15T03:46:14.914Z,3.50
2019-05-15T03:48:41.697Z,3.40
2019-05-15T03:51:09.194Z,4.03
2019-05-15T03:53:39.557Z,3.30
2019-05-15T03:56:04.817Z,3.90
2019-05-15T03:58:31.660Z,3.50
2019-05-15T04:01:00.254Z,3.70
2019-05-15T04:03:30.063Z,3.70
2019-05-15T04:05:55.754Z,3.80
2019-05-15T04:08:22.554Z,3.77
2019-05-15T04:10:49.371Z,3.20
2019-05-15T04:13:19.208Z,3.20
2019-05-15T04:15:46.008Z,3.50
2019-05-15T04:18:12.849Z,3.20
2019-05-15T04:20:40.603Z,3.20
2019-05-15T04:23:10.094Z,3.20
2019-05-15T04:25:39.144Z,3.75
2019-05-15T04:28:09.382Z,3.37
2019-05-15T04:30:35.004Z,3.10
2019-05-15T04:33:01.857Z,3.20
2019-05-15T04:35:29.028Z,2.92
2019-05-15T04:37:56.039Z,3.20
2019-05-15T04:40:22.870Z,3.00
2019-05-15T04:42:49.994Z,2.80
2019-05-15T04:45:19.427Z,3.10
2019-05-15T04:47:45.541Z,3.10
2019-05-15T04:50:12.525Z,3.40
2019-05-15T04:52:43.111Z,3.30
2019-05-15T04:55:10.134Z,3.05
2019-05-15T04:57:39.496Z,3.30
2019-05-15T05:00:09.179Z,3.20
2019-05-15T05:02:34.385Z,3.10
2019-05-15T05:05:01.223Z,3.00
2019-05-15T05:07:29.518Z,3.20
2019-05-15T05:09:59.437Z,3.40
2019-05-15T05:12:25.428Z,3.33
2019-05-15T05:14:52.404Z,3.30
2019-05-15T05:17:19.667Z,3.08
2019-05-15T05:19:47.826Z,3.10
2019-05-15T05:22:15.598Z,3.10
2019-05-15T05:24:42.584Z,3.20
2019-05-15T05:27:09.472Z,3.15
2019-05-15T05:29:38.471Z,3.40
2019-05-15T05:32:04.932Z,3.30
2019-05-15T05:34:31.829Z,2.80
2019-05-15T05:36:59.034Z,3.02
2019-05-15T05:39:25.945Z,3.50
2019-05-15T05:41:52.778Z,3.10
2019-05-15T05:44:19.681Z,2.77
2019-05-15T05:46:49.794Z,3.33
2019-05-15T05:49:18.384Z,3.10
2019-05-15T05:51:45.216Z,3.35
2019-05-15T05:54:12.294Z,3.20
2019-05-15T05:56:39.150Z,3.10
2019-05-15T05:59:05.928Z,3.50
2019-05-15T06:01:35.948Z,3.00
2019-05-15T06:04:01.419Z,3.20
2019-05-15T06:06:29.291Z,3.10
2019-05-15T06:08:58.284Z,3.15
2019-05-15T06:11:24.834Z,2.80
2019-05-15T06:13:52.597Z,2.60
2019-05-15T06:16:19.648Z,3.00
2019-05-15T06:18:48.948Z,3.15
2019-05-15T06:21:15.091Z,2.80
2019-05-15T06:23:45.681Z,2.80
2019-05-15T06:26:11.546Z,2.92
2019-05-15T06:28:39.790Z,2.90
2019-05-15T06:31:08.723Z,3.40
2019-05-15T06:33:35.390Z,3.00
2019-05-15T06:36:02.171Z,2.62
2019-05-15T06:38:31.031Z,3.20
2019-05-15T06:40:58.314Z,3.35
2019-05-15T06:43:27.924Z,2.72
2019-05-15T06:45:54.060Z,2.60
2019-05-15T06:48:20.849Z,3.10
2019-05-15T06:50:49.011Z,2.70
2019-05-15T06:53:18.781Z,2.70
2019-05-15T06:55:44.852Z,2.97
2019-05-15T06:58:11.704Z,2.80
2019-05-15T07:00:39.219Z,2.83
2019-05-15T07:03:18.138Z,3.00
2019-05-15T07:05:34.859Z,2.67
2019-05-15T07:08:01.640Z,3.37
2019-05-15T07:10:28.763Z,2.80
2019-05-15T07:12:55.697Z,3.25
2019-05-15T07:15:22.933Z,3.50
2019-05-15T07:17:50.756Z,3.45
2019-05-15T07:20:19.701Z,3.65
2019-05-15T07:22:48.941Z,3.20
2019-05-15T07:25:15.305Z,3.67
2019-05-15T07:27:42.145Z,3.12
2019-05-15T07:30:11.935Z,3.02
2019-05-15T07:32:39.571Z,3.10
2019-05-15T07:35:08.463Z,2.95
2019-05-15T07:37:35.402Z,3.00
2019-05-15T07:40:08.353Z,3.67
2019-05-15T07:42:38.321Z,3.33
2019-05-15T07:45:09.333Z,2.95
2019-05-15T07:47:38.349Z,3.10
2019-05-15T07:50:09.380Z,3.40
2019-05-15T07:52:39.455Z,3.50
2019-05-15T07:55:08.759Z,3.20
2019-05-15T07:57:38.881Z,3.65
2019-05-15T08:00:18.744Z,3.67
2019-05-15T08:02:45.148Z,3.40
2019-05-15T08:05:12.244Z,3.27
2019-05-15T08:07:39.288Z,3.90
2019-05-15T08:10:08.716Z,3.60
2019-05-15T08:12:35.725Z,3.10
2019-05-15T08:15:08.843Z,3.62
2019-05-15T08:17:35.876Z,3.23
2019-05-15T08:20:05.713Z,3.50
2019-05-15T08:22:32.498Z,3.30
2019-05-15T08:24:59.335Z,3.40
2019-05-15T08:27:29.648Z,3.50
2019-05-15T08:29:54.758Z,3.60
2019-05-15T08:32:21.550Z,4.30
2019-05-15T08:34:48.449Z,3.30
2019-05-15T08:37:15.246Z,3.30
2019-05-15T08:39:42.042Z,3.33
2019-05-15T08:42:08.877Z,3.50
2019-05-15T08:44:35.786Z,3.40
2019-05-15T08:47:02.569Z,3.08
2019-05-15T08:49:29.724Z,3.00
2019-05-15T08:51:58.370Z,3.15
2019-05-15T08:54:25.166Z,3.40
2019-05-15T08:56:51.961Z,3.20
2019-05-15T08:59:18.911Z,3.50
2019-05-15T09:01:45.785Z,3.40
2019-05-15T09:04:26.506Z,3.37
2019-05-15T09:06:41.627Z,3.37
2019-05-15T09:09:09.652Z,3.10
2019-05-15T09:11:38.798Z,3.02
2019-05-15T09:14:08.036Z,3.15
2019-05-15T09:16:33.913Z,3.72
2019-05-15T09:19:00.749Z,3.30
2019-05-15T09:21:28.387Z,3.30
2019-05-15T09:23:55.324Z,3.00
2019-05-15T09:26:22.176Z,3.10
2019-05-15T09:28:49.553Z,3.30
2019-05-15T09:31:19.039Z,3.35
2019-05-15T09:33:46.125Z,3.50
2019-05-15T09:36:12.912Z,3.27
2019-05-15T09:38:39.744Z,3.10
2019-05-15T09:41:08.834Z,3.40
2019-05-15T09:43:35.184Z,3.27
2019-05-15T09:46:02.025Z,3.40
2019-05-15T09:48:28.932Z,3.10
2019-05-15T09:50:58.529Z,4.00
2019-05-15T09:53:24.868Z,2.90
2019-05-15T09:55:51.693Z,3.30
2019-05-15T09:58:20.422Z,3.30
2019-05-15T10:00:51.702Z,3.42
2019-05-15T10:03:19.010Z,3.80
2019-05-15T10:05:48.119Z,3.30
2019-05-15T10:08:14.610Z,3.00
2019-05-15T10:10:41.449Z,3.55
2019-05-15T10:13:09.006Z,3.10
2019-05-15T10:15:38.814Z,3.15
2019-05-15T10:18:04.712Z,3.25
2019-05-15T10:20:31.560Z,3.05
2019-05-15T10:22:59.023Z,2.98
2019-05-15T10:25:28.019Z,3.00
2019-05-15T10:27:54.581Z,3.22
2019-05-15T10:30:21.424Z,2.90
2019-05-15T10:32:48.831Z,3.37
2019-05-15T10:35:25.686Z,3.52
2019-05-15T10:37:44.587Z,3.52
2019-05-15T10:40:11.824Z,3.22
2019-05-15T10:42:39.742Z,2.90
2019-05-15T10:45:08.965Z,3.00
2019-05-15T10:47:38.523Z,3.00
2019-05-15T10:50:08.002Z,3.37
2019-05-15T10:52:34.900Z,3.10
2019-05-15T10:55:01.737Z,3.20
2019-05-15T10:57:29.032Z,3.17
2019-05-15T10:59:55.852Z,3.33
2019-05-15T11:02:22.689Z,3.45
2019-05-15T11:04:49.468Z,3.00
2019-05-15T11:07:19.250Z,3.10
2019-05-15T11:09:44.885Z,3.50
2019-05-15T11:12:11.729Z,3.20
2019-05-15T11:14:38.576Z,3.40
2019-05-15T11:17:05.358Z,3.40
2019-05-15T11:19:36.031Z,3.45
2019-05-15T11:22:01.093Z,3.62
2019-05-15T11:24:28.286Z,3.75
2019-05-15T11:26:58.792Z,3.50
2019-05-15T11:29:25.553Z,3.15
2019-05-15T11:31:52.422Z,3.00
2019-05-15T11:34:19.268Z,3.00
2019-05-15T11:36:48.397Z,3.58
2019-05-15T11:39:14.713Z,3.77
2019-05-15T11:41:41.550Z,3.50
2019-05-15T11:44:08.426Z,3.40
2019-05-15T11:46:35.210Z,3.50
2019-05-15T11:49:02.001Z,3.25
2019-05-15T11:51:29.161Z,3.70
2019-05-15T11:53:58.626Z,2.83
2019-05-15T11:56:24.949Z,3.17
2019-05-15T11:58:51.738Z,3.40
2019-05-15T12:01:19.393Z,3.12
2019-05-15T12:03:46.485Z,3.20
2019-05-15T12:06:19.026Z,3.45
2019-05-15T12:08:41.967Z,2.90
2019-05-15T12:11:12.097Z,2.80
2019-05-15T12:13:38.182Z,2.80
2019-05-15T12:16:05.074Z,3.50
2019-05-15T12:18:31.941Z,3.40
2019-05-15T12:23:29.185Z,3.33
2019-05-15T12:25:55.995Z,3.10
2019-05-15T12:28:22.782Z,3.27
2019-05-15T12:30:49.608Z,3.30
2019-05-15T12:33:18.357Z,3.65
2019-05-15T12:35:45.138Z,3.42
2019-05-15T12:38:11.929Z,3.50
2019-05-15T13:00:29.914Z,3.60
2019-05-15T13:02:59.030Z,3.40
2019-05-15T13:05:25.477Z,3.30
2019-05-15T13:07:52.285Z,3.77
2019-05-15T13:10:19.156Z,3.05
2019-05-15T13:12:57.212Z,3.77
2019-05-15T13:15:18.776Z,3.30
2019-05-15T13:17:45.109Z,3.77
2019-05-15T13:20:12.141Z,3.50
2019-05-15T13:22:39.500Z,3.60
2019-05-15T13:25:08.491Z,3.40
2019-05-15T13:27:38.219Z,5.15
2019-05-15T13:30:09.054Z,3.50
2019-05-15T13:32:35.710Z,3.42
2019-05-15T13:35:03.930Z,3.95
2019-05-15T13:37:31.166Z,3.62
2019-05-15T13:39:58.734Z,3.33
2019-05-15T13:42:27.933Z,3.40
2019-05-15T13:44:58.527Z,3.62
2019-05-15T13:47:24.776Z,3.62
2019-05-15T13:49:51.596Z,3.40
2019-05-15T13:52:18.899Z,3.30
2019-05-15T13:54:48.238Z,3.00
2019-05-15T13:57:14.473Z,3.40
2019-05-15T13:59:41.309Z,3.08
2019-05-15T14:02:08.621Z,3.80
2019-05-15T14:04:38.485Z,3.40
2019-05-15T14:07:04.175Z,4.17
2019-05-15T14:09:33.640Z,3.98
2019-05-15T14:11:59.743Z,3.60
2019-05-15T14:14:28.561Z,3.20
2019-05-15T14:16:59.058Z,3.85
2019-05-15T14:19:24.945Z,4.20
2019-05-15T14:21:51.776Z,3.70
2019-05-15T14:24:20.339Z,3.60
2019-05-15T14:26:48.507Z,3.60
2019-05-15T14:29:15.473Z,3.20
2019-05-15T14:31:42.401Z,3.35
2019-05-15T14:34:09.233Z,3.40
2019-05-15T14:36:36.017Z,4.35
2019-05-15T14:39:07.907Z,3.35
2019-05-15T14:41:34.262Z,3.90
2019-05-15T14:44:13.049Z,3.80
2019-05-15T14:46:29.765Z,3.75
2019-05-15T14:48:58.304Z,4.33
2019-05-15T14:51:25.153Z,3.62
2019-05-15T14:53:52.005Z,4.20
2019-05-15T14:56:19.159Z,3.30
2019-05-15T14:58:48.048Z,3.80
2019-05-15T15:01:14.603Z,3.58
2019-05-15T15:03:41.453Z,3.42
2019-05-15T15:06:08.623Z,3.87
2019-05-15T15:08:35.717Z,3.20
2019-05-15T15:11:02.511Z,3.70
2019-05-15T15:13:29.652Z,2.85
2019-05-15T15:15:58.911Z,3.80
2019-05-15T15:18:25.137Z,3.33
2019-05-15T15:20:51.974Z,3.67
2019-05-15T15:23:18.756Z,3.20
2019-05-15T15:25:45.599Z,3.12
2019-05-15T15:28:12.632Z,3.00
2019-05-15T15:30:39.720Z,2.70
2019-05-15T15:33:08.518Z,2.70
2019-05-15T15:35:35.214Z,3.58
2019-05-15T15:38:02.003Z,2.75
2019-05-15T15:40:28.829Z,3.77
2019-05-15T15:42:57.908Z,3.40
2019-05-15T15:45:24.368Z,3.10
2019-05-15T15:48:04.403Z,2.52
2019-05-15T15:50:31.284Z,3.00
2019-05-15T15:52:59.322Z,2.95
2019-05-15T15:55:28.857Z,3.12
2019-05-15T15:57:54.989Z,3.30
2019-05-15T16:00:21.932Z,3.10
2019-05-15T16:02:48.766Z,3.00
2019-05-15T16:05:16.145Z,2.70
2019-05-15T16:07:43.570Z,2.80
2019-05-15T16:10:10.810Z,2.70
2019-05-15T16:12:38.853Z,5.03
2019-05-15T16:15:08.815Z,5.35
2019-05-15T16:17:38.097Z,3.00
2019-05-15T16:20:05.585Z,3.15
2019-05-15T16:22:32.421Z,3.10
2019-05-15T16:25:02.373Z,3.20
2019-05-15T16:27:28.750Z,2.60
2019-05-15T16:29:55.709Z,2.65
2019-05-15T16:32:22.541Z,2.65
2019-05-15T16:34:49.325Z,3.12
2019-05-15T16:37:18.674Z,2.83
2019-05-15T16:39:44.810Z,3.10
2019-05-15T16:42:11.616Z,3.00
2019-05-15T16:44:39.556Z,3.20
2019-05-15T16:47:08.440Z,2.70
2019-05-15T16:49:35.034Z,2.62
2019-05-15T16:52:01.865Z,2.67
2019-05-15T16:54:29.029Z,2.90
2019-05-15T16:56:55.873Z,3.98
2019-05-15T16:59:23.669Z,4.00
2019-05-15T17:01:50.549Z,3.30
2019-05-15T17:04:18.203Z,3.67
2019-05-15T17:06:45.312Z,3.70
2019-05-15T17:09:21.345Z,3.40
2019-05-15T17:11:40.777Z,3.65
2019-05-15T17:14:08.767Z,3.33
2019-05-15T17:16:38.512Z,3.60
2019-05-15T17:19:04.525Z,3.20
2019-05-15T17:21:31.373Z,3.70
2019-05-15T17:23:58.313Z,3.10
2019-05-15T17:26:25.221Z,3.10
2019-05-15T17:28:52.076Z,3.22
2019-05-15T17:31:18.952Z,4.20
2019-05-15T17:33:45.765Z,4.00
2019-05-15T17:36:12.904Z,4.00
2019-05-15T17:38:39.737Z,3.72
2019-05-15T17:41:08.372Z,4.23
2019-05-15T17:43:35.275Z,4.10
2019-05-15T17:46:02.057Z,4.08
2019-05-15T17:48:29.099Z,4.20
2019-05-15T17:50:58.426Z,3.92
2019-05-15T17:53:24.772Z,3.60
2019-05-15T17:55:52.621Z,3.83
2019-05-15T17:58:19.409Z,3.58
2019-05-15T18:00:48.477Z,3.98
2019-05-15T18:03:15.040Z,3.40
2019-05-15T18:05:41.860Z,2.80
2019-05-15T18:08:08.925Z,3.50
2019-05-15T18:10:38.104Z,3.02
2019-05-15T18:13:04.760Z,3.40
2019-05-15T18:15:31.963Z,3.00
2019-05-15T18:17:59.542Z,3.10
2019-05-15T18:20:29.447Z,3.00
2019-05-15T18:22:58.827Z,3.30
2019-05-15T18:25:24.889Z,3.42
2019-05-15T18:27:51.720Z,2.80
2019-05-15T18:30:19.609Z,3.10
2019-05-15T18:32:48.848Z,3.00
2019-05-15T18:35:18.788Z,3.02
2019-05-15T18:37:48.146Z,3.10
2019-05-15T18:40:14.942Z,2.98
2019-05-15T18:42:41.913Z,3.30
2019-05-15T18:45:09.238Z,2.90
2019-05-15T18:47:38.656Z,2.70
2019-05-15T18:50:09.690Z,3.08
2019-05-15T18:52:35.226Z,3.10
2019-05-15T18:55:02.372Z,3.30
2019-05-15T18:57:29.414Z,3.37
2019-05-15T18:59:58.032Z,2.60
2019-05-15T19:02:25.046Z,2.90
2019-05-15T19:04:52.006Z,2.90
2019-05-15T19:07:18.799Z,2.80
2019-05-15T19:09:47.896Z,3.10
2019-05-15T19:12:14.525Z,2.80
2019-05-15T19:14:41.316Z,3.05
2019-05-15T19:17:08.465Z,2.90
2019-05-15T19:19:35.252Z,3.00
2019-05-15T19:22:02.098Z,3.10
2019-05-15T19:24:28.892Z,2.77
2019-05-15T19:26:55.754Z,2.50
2019-05-15T19:29:22.540Z,3.23
2019-05-15T19:31:49.528Z,3.45
2019-05-15T19:34:18.819Z,3.00
2019-05-15T19:36:45.813Z,2.80
2019-05-15T19:39:18.661Z,2.90
2019-05-15T19:41:47.585Z,2.80
2019-05-15T19:44:17.825Z,3.33
2019-05-15T19:46:43.946Z,3.33
2019-05-15T19:49:11.027Z,3.00
2019-05-15T19:51:38.235Z,2.70
2019-05-15T19:54:05.233Z,2.90
2019-05-15T19:56:32.021Z,2.72
2019-05-15T19:58:59.104Z,3.27
2019-05-15T20:01:28.049Z,3.10
2019-05-15T20:03:54.580Z,3.10
2019-05-15T20:06:21.421Z,3.20
2019-05-15T20:08:48.203Z,3.20
2019-05-15T20:11:15.224Z,3.20
2019-05-15T20:13:42.009Z,3.10
2019-05-15T20:16:08.849Z,3.30
2019-05-15T20:18:35.628Z,3.20
2019-05-15T20:21:02.466Z,2.90
2019-05-15T20:23:29.312Z,3.12
2019-05-15T20:25:57.643Z,3.12
2019-05-15T20:28:24.674Z,3.40
2019-05-15T20:30:51.812Z,3.50
2019-05-15T20:33:18.649Z,3.40
2019-05-15T20:35:47.834Z,3.80
2019-05-15T20:38:14.078Z,3.90
2019-05-15T20:40:40.949Z,4.45
2019-05-15T20:43:08.335Z,4.00
2019-05-15T20:45:35.278Z,3.80
2019-05-15T20:48:02.112Z,3.70
2019-05-15T20:50:28.898Z,3.70
2019-05-15T20:52:58.591Z,3.35
2019-05-15T20:55:24.628Z,4.20
2019-05-15T20:57:51.509Z,4.50
2019-05-15T21:00:19.500Z,4.10
2019-05-15T21:02:48.571Z,3.60
2019-05-15T21:05:15.152Z,3.80
2019-05-15T21:07:43.368Z,4.40
2019-05-15T21:10:11.502Z,4.10
2019-05-15T21:12:40.887Z,3.80
2019-05-15T21:15:08.585Z,3.58
2019-05-15T21:17:35.661Z,3.80
2019-05-15T21:20:03.452Z,3.98
2019-05-15T21:22:30.284Z,3.80
2019-05-15T21:24:57.083Z,3.90
2019-05-15T21:27:24.804Z,3.52
2019-05-15T21:29:51.825Z,3.95
2019-05-15T21:32:19.568Z,3.50
2019-05-15T21:34:49.245Z,4.30
2019-05-15T21:37:15.357Z,3.62
2019-05-15T21:39:42.213Z,3.90
2019-05-15T21:42:09.097Z,3.20
2019-05-15T21:44:38.127Z,3.40
2019-05-15T21:47:04.545Z,3.42
2019-05-15T21:49:31.333Z,3.90
2019-05-15T21:51:58.497Z,4.10
2019-05-15T21:54:25.396Z,4.00
2019-05-15T21:57:05.423Z,3.80
2019-05-15T21:59:20.824Z,3.70
2019-05-15T22:01:48.326Z,4.30
2019-05-15T22:04:15.248Z,4.10
2019-05-15T22:06:42.093Z,4.00
2019-05-15T22:09:10.737Z,3.45
2019-05-15T22:11:39.521Z,4.20
2019-05-15T22:14:08.031Z,4.47
2019-05-15T22:16:34.930Z,4.25
2019-05-15T22:19:01.751Z,3.80
2019-05-15T22:21:28.528Z,4.30
2019-05-15T22:23:55.569Z,4.47
2019-05-15T22:26:22.356Z,4.40
2019-05-15T22:28:49.189Z,4.45
2019-05-15T22:31:16.074Z,3.90
2019-05-15T22:33:42.944Z,4.15
2019-05-15T22:36:09.784Z,3.77
2019-05-15T22:38:36.618Z,4.20
2019-05-15T22:41:03.408Z,4.78
2019-05-15T22:43:30.280Z,4.33
2019-05-15T22:45:58.842Z,4.20
2019-05-15T22:48:25.769Z,4.00
2019-05-15T22:50:52.604Z,4.20
2019-05-15T22:53:19.397Z,3.95
2019-05-15T22:55:48.371Z,4.12
2019-05-15T22:58:15.533Z,5.05
2019-05-15T23:00:42.604Z,5.20
2019-05-15T23:03:09.404Z,5.22
2019-05-15T23:05:36.201Z,4.47
2019-05-15T23:08:03.037Z,4.58
2019-05-15T23:10:29.873Z,5.10
2019-05-15T23:12:58.090Z,5.62
2019-05-15T23:15:25.295Z,5.15
2019-05-15T23:17:53.937Z,5.25
2019-05-15T23:20:20.728Z,4.90
2019-05-15T23:22:47.573Z,5.50
2019-05-15T23:25:14.360Z,6.17
2019-05-15T23:27:41.200Z,5.60
2019-05-15T23:30:09.180Z,5.30
2019-05-15T23:32:38.552Z,5.43
2019-05-15T23:35:04.954Z,5.30
2019-05-15T23:37:31.784Z,5.42
2019-05-15T23:39:58.625Z,5.15
2019-05-15T23:42:25.461Z,5.28
2019-05-15T23:44:52.240Z,5.30
2019-05-15T23:47:19.080Z,5.20
2019-05-15T23:49:45.916Z,5.30
2019-05-15T23:52:13.000Z,4.97
2019-05-15T23:54:39.836Z,5.90
2019-05-15T23:59:44.433Z,5.47
